Time;durP1;ratioP1;P1;durP2;ratioP2;P2;SDS_P1;SDS_P2;PMS_P1;PMS_P2;Temp;Humidity;BMP_temperature;BMP_pressure;BME280_temperature;BME280_humidity;BME280_pressure;Samples;Min_cycle;Max_cycle;Signal;HPM_P1;HPM_P2
2021/06/25 00:03:08;;;;;;;0.40;0.10;;;20.60;99.90;;;;;;20818241;23;20250;-68
2021/06/25 00:13:12;;;;;;;1.07;0.87;;;20.50;99.90;;;;;;20816896;28;20228;-68
2021/06/25 00:23:17;;;;;;;1.17;1.07;;;20.40;99.90;;;;;;20815694;28;20209;-68
2021/06/25 00:33:20;;;;;;;7.20;1.17;;;20.30;99.90;;;;;;20817655;28;20774;-67
2021/06/25 00:43:26;;;;;;;0.20;0.20;;;20.20;99.90;;;;;;20817941;28;20205;-67
2021/06/25 00:53:29;;;;;;;0.20;0.10;;;20.10;99.90;;;;;;20817422;28;20317;-67
2021/06/25 01:03:36;;;;;;;1.77;0.40;;;20.00;99.90;;;;;;20865227;22;20244;-71
2021/06/25 01:13:40;;;;;;;0.43;0.30;;;19.80;99.90;;;;;;20981803;28;20290;-71
2021/06/25 01:23:45;;;;;;;0.20;0.10;;;19.90;99.90;;;;;;20994104;28;20196;-70
2021/06/25 01:33:50;;;;;;;0.77;0.73;;;19.90;99.90;;;;;;20993754;28;20248;-70
2021/06/25 01:43:56;;;;;;;1.03;0.33;;;19.90;99.90;;;;;;20993256;28;20192;-71
2021/06/25 01:54:00;;;;;;;0.30;0.20;;;19.80;99.90;;;;;;20992262;28;20708;-70
2021/06/25 02:04:05;;;;;;;0.30;0.10;;;19.80;99.90;;;;;;20921189;22;20282;-65
2021/06/25 02:14:09;;;;;;;0.50;0.40;;;19.80;99.90;;;;;;20826665;28;20229;-66
2021/06/25 02:24:14;;;;;;;0.30;0.30;;;19.80;99.90;;;;;;20826169;28;20240;-65
2021/06/25 02:34:17;;;;;;;0.27;0.23;;;19.70;99.90;;;;;;20825326;28;20313;-65
2021/06/25 02:44:23;;;;;;;1.40;0.60;;;19.70;99.90;;;;;;20823632;28;20205;-65
2021/06/25 02:54:26;;;;;;;0.20;0.20;;;19.70;99.90;;;;;;20823064;28;20236;-65
2021/06/25 03:04:31;;;;;;;0.50;0.50;;;19.70;99.90;;;;;;20925846;23;20665;-67
2021/06/25 03:14:35;;;;;;;0.53;0.50;;;19.70;99.90;;;;;;20987490;28;20220;-67
2021/06/25 03:24:40;;;;;;;0.30;0.30;;;19.60;99.90;;;;;;20986504;28;20200;-68
2021/06/25 03:34:44;;;;;;;0.20;0.00;;;19.60;99.90;;;;;;20985823;28;20239;-68
2021/06/25 03:44:49;;;;;;;0.30;0.30;;;19.60;99.90;;;;;;20982019;28;20228;-68
2021/06/25 03:54:53;;;;;;;0.30;0.30;;;19.50;99.90;;;;;;20985251;28;20224;-68
2021/06/25 04:04:58;;;;;;;1.13;0.37;;;19.40;99.90;;;;;;20998165;22;20262;-64
2021/06/25 04:15:02;;;;;;;0.70;0.50;;;19.60;99.90;;;;;;20982821;28;20311;-64
2021/06/25 04:25:08;;;;;;;0.27;0.20;;;19.50;99.90;;;;;;20981647;28;20205;-63
2021/06/25 04:35:12;;;;;;;0.30;0.20;;;19.40;99.90;;;;;;20982812;28;20220;-65
2021/06/25 04:45:17;;;;;;;0.27;0.27;;;19.40;99.90;;;;;;20981872;28;20276;-64
2021/06/25 04:55:21;;;;;;;0.50;0.30;;;19.20;99.90;;;;;;20995316;28;20739;-63
2021/06/25 05:05:26;;;;;;;0.27;0.27;;;19.40;99.90;;;;;;20977921;28;20231;-64
2021/06/25 05:15:30;;;;;;;0.50;0.50;;;19.60;99.90;;;;;;20994796;28;20313;-63
2021/06/25 05:25:35;;;;;;;0.20;0.10;;;19.70;99.90;;;;;;20994823;28;20193;-63
2021/06/25 05:35:39;;;;;;;0.83;0.70;;;20.00;99.90;;;;;;20992875;28;20584;-64
2021/06/25 05:45:44;;;;;;;0.30;0.30;;;20.60;99.90;;;;;;20975057;28;20193;-65
2021/06/25 05:55:47;;;;;;;2.60;0.87;;;21.00;99.90;;;;;;20992456;28;20225;-64
2021/06/25 06:05:52;;;;;;;0.47;0.40;;;21.40;99.90;;;;;;20990608;28;20579;-62
2021/06/25 06:15:57;;;;;;;3.10;1.23;;;21.80;99.90;;;;;;20989337;28;20230;-64
2021/06/25 06:36:26;;;;;;;0.30;0.30;;;21.90;99.90;;;;;;20987174;28;20224;-65
2021/06/25 06:46:33;;;;;;;0.50;0.50;;;22.00;99.90;;;;;;20986187;28;20203;-65
2021/06/25 06:56:37;;;;;;;0.37;0.37;;;22.40;99.90;;;;;;20985042;28;20307;-65
2021/06/25 07:06:42;;;;;;;1.57;0.73;;;22.70;99.90;;;;;;20984373;28;20638;-64
2021/06/25 07:16:45;;;;;;;0.97;0.50;;;23.30;99.90;;;;;;20983322;28;20303;-66
2021/06/25 07:26:51;;;;;;;0.30;0.30;;;23.00;99.90;;;;;;20963357;28;20535;-64
2021/06/25 07:36:54;;;;;;;1.23;0.87;;;23.10;99.90;;;;;;20951128;28;20300;-65
2021/06/25 07:46:59;;;;;;;0.47;0.47;;;23.10;99.90;;;;;;20898770;28;20194;-65
2021/06/25 07:57:03;;;;;;;0.30;0.30;;;23.50;99.90;;;;;;20897616;28;20302;-65
2021/06/25 08:07:08;;;;;;;1.20;0.80;;;23.60;99.90;;;;;;20879187;28;20317;-67
2021/06/25 08:17:12;;;;;;;0.83;0.50;;;23.50;99.90;;;;;;20896835;28;20221;-63
2021/06/25 08:27:18;;;;;;;0.70;0.70;;;23.30;99.90;;;;;;20975534;28;20206;-64
2021/06/25 08:37:21;;;;;;;0.63;0.60;;;23.50;99.90;;;;;;20996227;28;20226;-65
2021/06/25 08:47:27;;;;;;;2.27;1.13;;;23.60;99.90;;;;;;20994510;28;20189;-63
2021/06/25 08:57:38;;;;;;;2.00;1.30;;;23.70;99.90;;;;;;20993449;28;20220;-64
2021/06/25 09:07:44;;;;;;;0.50;0.33;;;23.80;99.90;;;;;;20958998;28;20255;-62
2021/06/25 09:17:58;;;;;;;0.35;0.25;;;23.80;99.90;;;;;;20993379;28;20278;-63
2021/06/25 09:28:05;;;;;;;0.90;0.83;;;23.90;99.90;;;;;;20992548;28;20193;-63
2021/06/25 09:38:09;;;;;;;0.30;0.30;;;24.20;99.90;;;;;;20990499;28;20221;-63
2021/06/25 09:48:15;;;;;;;0.63;0.60;;;24.20;99.90;;;;;;20990555;28;20205;-62
2021/06/25 09:58:28;;;;;;;0.30;0.30;;;24.40;99.90;;;;;;20990837;28;20581;-60
2021/06/25 10:08:33;;;;;;;0.43;0.43;;;24.60;99.90;;;;;;20990070;28;20232;-64
2021/06/25 10:18:40;;;;;;;0.30;0.30;;;24.80;99.90;;;;;;20989103;28;20228;-62
2021/06/25 10:28:46;;;;;;;1.92;0.77;;;25.20;99.90;;;;;;20985121;28;20551;-62
2021/06/25 10:38:52;;;;;;;0.90;0.77;;;25.40;99.90;;;;;;20984311;28;20256;-64
2021/06/25 10:48:59;;;;;;;0.30;0.30;;;25.70;99.90;;;;;;20985885;28;20480;-64
2021/06/25 10:59:22;;;;;;;1.67;1.00;;;25.90;99.90;;;;;;20964831;28;20941;-62
2021/06/25 11:09:47;;;;;;;1.55;0.90;;;26.50;99.90;;;;;;20966086;28;20355;-63
2021/06/25 11:19:51;;;;;;;1.23;0.57;;;26.70;99.90;;;;;;20983940;28;20217;-63
2021/06/25 11:29:56;;;;;;;0.43;0.43;;;27.30;99.90;;;;;;20982760;28;20549;-63
2021/06/25 11:39:59;;;;;;;2.88;1.10;;;28.30;99.90;;;;;;20981654;28;20311;-63
2021/06/25 11:50:11;;;;;;;0.65;0.32;;;29.30;99.90;;;;;;20979604;28;20197;-62
2021/06/25 12:00:17;;;;;;;2.88;0.90;;;28.10;99.90;;;;;;20979821;28;20246;-63
2021/06/25 12:10:22;;;;;;;2.35;1.58;;;29.40;99.90;;;;;;20938179;28;20283;-62
2021/06/25 12:20:29;;;;;;;2.45;0.40;;;30.90;99.90;;;;;;20973755;28;20595;-64
2021/06/25 12:30:35;;;;;;;0.40;0.30;;;30.50;99.90;;;;;;20978972;28;20201;-63
2021/06/25 12:40:48;;;;;;;0.30;0.30;;;31.30;99.90;;;;;;20976982;28;20231;-64
2021/06/25 12:50:59;;;;;;;0.40;0.35;;;31.70;99.90;;;;;;20979255;28;20681;-64
2021/06/25 13:01:04;;;;;;;1.98;0.73;;;30.90;99.90;;;;;;20978345;28;20625;-62
2021/06/25 13:11:21;;;;;;;0.30;0.22;;;29.80;99.90;;;;;;20983104;28;20324;-64
2021/06/25 13:21:50;;;;;;;3.13;0.28;;;29.90;99.90;;;;;;20975838;28;20260;-64
2021/06/25 13:31:56;;;;;;;1.25;0.52;;;31.70;99.90;;;;;;20975673;28;20414;-64
2021/06/25 13:42:01;;;;;;;0.50;0.40;;;33.10;99.90;;;;;;20992766;28;20201;-65
2021/06/25 13:52:26;;;;;;;0.20;0.20;;;32.10;99.90;;;;;;20991037;28;20224;-63
2021/06/25 14:02:30;;;;;;;0.30;0.20;;;32.40;99.90;;;;;;20989095;28;20311;-63
2021/06/25 14:12:42;;;;;;;0.95;0.30;;;32.60;99.90;;;;;;20971043;28;20243;-63
2021/06/25 14:22:46;;;;;;;0.60;0.20;;;32.40;99.90;;;;;;20987448;28;20200;-62
2021/06/25 14:32:53;;;;;;;1.42;1.02;;;33.50;99.90;;;;;;20970418;28;20220;-64
2021/06/25 14:42:56;;;;;;;3.42;0.50;;;32.60;99.90;;;;;;20987969;28;20485;-64
2021/06/25 14:53:01;;;;;;;1.42;0.60;;;33.40;99.90;;;;;;20986162;28;20220;-64
2021/06/25 15:03:06;;;;;;;0.70;0.50;;;34.50;99.90;;;;;;20984612;28;20224;-64
2021/06/25 15:13:14;;;;;;;0.40;0.38;;;34.30;99.90;;;;;;20985017;28;20255;-64
2021/06/25 15:23:18;;;;;;;5.78;0.98;;;34.90;99.90;;;;;;20984965;28;20193;-64
2021/06/25 15:33:23;;;;;;;0.73;0.40;;;32.50;99.90;;;;;;20981834;28;20262;-64
2021/06/25 15:43:27;;;;;;;3.67;1.08;;;32.70;99.90;;;;;;20964203;28;20242;-64
2021/06/25 15:53:32;;;;;;;2.25;0.80;;;32.90;99.90;;;;;;20980776;28;20220;-64
2021/06/25 16:03:36;;;;;;;0.82;0.65;;;32.70;99.90;;;;;;20962927;28;20224;-64
2021/06/25 16:13:41;;;;;;;0.88;0.65;;;33.10;99.90;;;;;;20962849;28;20707;-65
2021/06/25 16:23:44;;;;;;;1.58;0.70;;;33.40;99.90;;;;;;20962672;28;20541;-64
2021/06/25 16:33:50;;;;;;;5.47;0.82;;;33.00;99.90;;;;;;20978487;28;20220;-63
2021/06/25 16:43:53;;;;;;;1.00;0.32;;;31.20;99.90;;;;;;20963708;28;20288;-65
2021/06/25 16:53:58;;;;;;;0.77;0.60;;;32.20;99.90;;;;;;20977360;28;20228;-65
2021/06/25 17:04:02;;;;;;;2.70;0.57;;;31.80;99.90;;;;;;20994088;28;20685;-65
2021/06/25 17:14:07;;;;;;;0.98;0.73;;;32.70;99.90;;;;;;20994439;28;20307;-63
2021/06/25 17:24:11;;;;;;;3.40;1.60;;;33.20;99.90;;;;;;20992752;28;20189;-65
2021/06/25 17:34:16;;;;;;;0.63;0.57;;;32.50;99.90;;;;;;20992537;28;20312;-65
2021/06/25 17:44:20;;;;;;;2.22;0.73;;;31.70;99.90;;;;;;20973015;28;20704;-64
2021/06/25 17:54:25;;;;;;;0.80;0.50;;;31.50;99.90;;;;;;20990446;28;20235;-65
2021/06/25 18:04:28;;;;;;;2.22;0.93;;;29.50;99.90;;;;;;20972056;28;20229;-64
2021/06/25 18:14:33;;;;;;;1.58;1.40;;;30.00;99.90;;;;;;20988998;28;20800;-64
2021/06/25 18:24:37;;;;;;;0.98;0.60;;;29.50;99.90;;;;;;20987148;28;20657;-63
2021/06/25 18:34:42;;;;;;;0.57;0.52;;;29.50;99.90;;;;;;20987977;28;20716;-64
2021/06/25 18:44:46;;;;;;;0.60;0.30;;;29.30;99.90;;;;;;20969138;28;20653;-65
2021/06/25 18:54:51;;;;;;;1.55;0.40;;;28.20;99.90;;;;;;20968215;28;20590;-64
2021/06/25 19:04:54;;;;;;;1.52;0.88;;;27.10;99.90;;;;;;20965206;28;20220;-64
2021/06/25 19:14:59;;;;;;;4.57;1.80;;;25.50;99.90;;;;;;20984051;28;20700;-65
2021/06/25 19:25:04;;;;;;;0.45;0.32;;;24.90;99.90;;;;;;20983528;28;20703;-65
2021/06/25 19:35:11;;;;;;;1.05;0.30;;;24.50;99.90;;;;;;20964391;28;20646;-66
2021/06/25 19:45:15;;;;;;;0.95;0.55;;;24.10;99.90;;;;;;20950238;28;20629;-66
2021/06/25 19:55:20;;;;;;;2.90;2.20;;;24.20;99.90;;;;;;20983255;28;20217;-66
2021/06/25 20:05:24;;;;;;;1.15;0.75;;;24.10;99.90;;;;;;20983724;28;20592;-64
2021/06/25 20:15:30;;;;;;;0.50;0.50;;;24.10;99.90;;;;;;20964435;28;20251;-65
2021/06/25 20:25:33;;;;;;;0.50;0.45;;;24.00;99.90;;;;;;21004753;28;20258;-66
2021/06/25 20:35:40;;;;;;;0.43;0.35;;;23.80;99.90;;;;;;21008669;28;20586;-65
2021/06/25 20:45:44;;;;;;;0.73;0.73;;;23.80;99.90;;;;;;21008053;28;20197;-66
2021/06/25 20:55:55;;;;;;;0.60;0.60;;;23.80;99.90;;;;;;21007958;28;20227;-66
2021/06/25 21:06:00;;;;;;;0.50;0.50;;;23.70;99.90;;;;;;21007960;28;20719;-65
2021/06/25 21:16:05;;;;;;;3.13;1.60;;;23.60;99.90;;;;;;21006863;28;20220;-66
2021/06/25 21:26:08;;;;;;;0.33;0.33;;;23.30;99.90;;;;;;20990087;28;20193;-65
2021/06/25 21:36:14;;;;;;;1.53;0.40;;;23.10;99.90;;;;;;20995165;28;20307;-66
2021/06/25 21:46:17;;;;;;;0.70;0.60;;;23.00;99.90;;;;;;20994018;28;20402;-66
2021/06/25 21:56:22;;;;;;;0.40;0.20;;;23.10;99.90;;;;;;20993415;28;20697;-65
2021/06/25 22:06:26;;;;;;;0.30;0.10;;;22.50;99.90;;;;;;20991427;28;20299;-64
2021/06/25 22:16:31;;;;;;;0.67;0.20;;;22.30;99.90;;;;;;20990586;28;20220;-64
2021/06/25 22:26:36;;;;;;;0.53;0.27;;;22.20;99.90;;;;;;20991271;28;20192;-65
2021/06/25 22:36:41;;;;;;;0.20;0.10;;;22.00;99.90;;;;;;20989891;28;20263;-65
2021/06/25 22:46:44;;;;;;;11.63;0.70;;;21.80;99.90;;;;;;20988611;28;20224;-65
2021/06/25 22:56:49;;;;;;;0.20;0.20;;;21.80;99.90;;;;;;20988816;28;20588;-64
2021/06/25 23:06:55;;;;;;;2.93;0.30;;;21.60;99.90;;;;;;20970174;28;20213;-64
2021/06/25 23:17:00;;;;;;;0.50;0.10;;;21.40;99.90;;;;;;20987028;28;20232;-64
2021/06/25 23:27:04;;;;;;;0.70;0.70;;;21.40;99.90;;;;;;20986259;28;20556;-64
2021/06/25 23:37:10;;;;;;;0.40;0.37;;;21.40;99.90;;;;;;20985544;28;20220;-64
2021/06/25 23:47:13;;;;;;;0.20;0.00;;;21.30;99.90;;;;;;20985049;28;20193;-64
2021/06/25 23:57:19;;;;;;;0.20;0.17;;;21.30;99.90;;;;;;20965649;28;20282;-64
